Terminal Aerodrome Forecast
Issued by NWS Paducah, KY

Home | Current Version | Previous Version | Text Only | Print | Product List | Glossary On
Versions: 1 2 3 4 5 6 7 8 9 10 11 12 13 14 15 16 17 18 19 20 21 22 23 24 25
405
FTUS43 KPAH 281418 AAB
TAFPAH
TAF AMD
KPAH 281418Z 2814/2912 VRB03KT P6SM OVC007
     FM281600 25005KT P6SM SCT010 BKN045
     FM282000 25006KT P6SM VCTS SCT025 BKN050CB
      TEMPO 2820/2824 2SM TSRA BR OVC015CB
     FM290000 23003KT P6SM SCT100
      TEMPO 2908/2912 3SM BR=

USA.gov is the U.S. government's official web portal to all federal, state and local government web resources and services.